createdAt,value
2022-11-17T00:00:02.780Z,2.22
2022-11-17T00:04:15.101Z,2.08
2022-11-17T00:08:27.383Z,1.98
2022-11-17T00:12:59.063Z,1.92
2022-11-17T00:17:13.734Z,2.08
2022-11-17T00:21:27.866Z,2.17
2022-11-17T00:25:40.146Z,2.08
2022-11-17T00:29:52.468Z,2.10
2022-11-17T00:34:07.758Z,1.73
2022-11-17T00:38:20.422Z,2.10
2022-11-17T00:42:32.671Z,1.85
2022-11-17T00:46:46.634Z,2.22
2022-11-17T00:50:58.910Z,1.77
2022-11-17T00:55:11.194Z,2.25
2022-11-17T00:59:23.598Z,1.98
2022-11-17T01:03:37.317Z,1.88
2022-11-17T01:07:49.812Z,2.30
2022-11-17T01:12:02.112Z,2.28
2022-11-17T01:16:17.712Z,2.70
2022-11-17T01:20:30.023Z,2.30
2022-11-17T01:24:42.300Z,2.30
2022-11-17T01:28:55.341Z,2.20
2022-11-17T01:33:07.610Z,2.53
2022-11-17T01:37:19.926Z,2.53
2022-11-17T01:41:32.199Z,2.60
2022-11-17T01:45:45.180Z,2.67
2022-11-17T01:50:10.865Z,2.35
2022-11-17T01:54:26.613Z,2.50
2022-11-17T01:58:44.642Z,2.63
2022-11-17T02:02:57.570Z,2.55
2022-11-17T02:07:30.583Z,2.53
2022-11-17T02:11:43.048Z,3.17
2022-11-17T02:15:55.317Z,2.65
2022-11-17T02:20:07.996Z,2.80
2022-11-17T02:24:41.532Z,2.67
2022-11-17T02:29:02.193Z,3.40
2022-11-17T02:33:24.251Z,3.30
2022-11-17T02:37:53.165Z,3.25
2022-11-17T02:42:12.031Z,3.03
2022-11-17T02:46:26.523Z,2.55
2022-11-17T02:50:40.969Z,2.60
2022-11-17T02:54:53.265Z,2.83
2022-11-17T02:59:06.333Z,2.60
2022-11-17T03:03:24.358Z,3.28
2022-11-17T03:07:51.577Z,2.90
2022-11-17T03:12:14.976Z,3.10
2022-11-17T03:16:44.723Z,2.60
2022-11-17T03:21:20.327Z,2.50
2022-11-17T03:25:35.591Z,2.55
2022-11-17T03:29:51.380Z,2.95
2022-11-17T03:34:07.856Z,2.72
2022-11-17T03:38:23.754Z,2.50
2022-11-17T03:42:38.975Z,2.85
2022-11-17T03:46:55.651Z,2.63
2022-11-17T03:51:14.065Z,2.63
2022-11-17T03:55:34.908Z,2.97
2022-11-17T04:00:03.286Z,2.67
2022-11-17T04:04:18.159Z,2.53
2022-11-17T04:08:31.471Z,2.90
2022-11-17T04:13:02.539Z,3.35
2022-11-17T04:17:14.832Z,2.78
2022-11-17T04:21:27.481Z,3.45
2022-11-17T04:26:01.274Z,3.08
2022-11-17T04:30:13.769Z,2.85
2022-11-17T04:34:26.234Z,2.70
2022-11-17T04:38:42.402Z,3.05
2022-11-17T04:42:54.658Z,3.25
2022-11-17T04:47:07.766Z,3.28
2022-11-17T04:51:20.069Z,2.90
2022-11-17T04:55:33.286Z,3.22
2022-11-17T04:59:45.533Z,3.00
2022-11-17T05:04:00.863Z,3.10
2022-11-17T05:08:13.224Z,3.00
2022-11-17T05:12:44.254Z,3.83
2022-11-17T05:17:12.125Z,3.20
2022-11-17T05:21:24.439Z,3.20
2022-11-17T05:25:36.742Z,3.00
2022-11-17T05:29:49.625Z,2.90
2022-11-17T05:34:03.898Z,2.78
2022-11-17T05:38:16.161Z,3.38
2022-11-17T05:42:28.425Z,3.22
2022-11-17T05:46:40.695Z,3.75
2022-11-17T05:50:57.178Z,3.50
2022-11-17T05:55:09.525Z,3.78
2022-11-17T05:59:31.409Z,3.72
2022-11-17T06:03:53.439Z,3.28
2022-11-17T06:08:06.137Z,3.83
2022-11-17T06:12:18.494Z,3.25
2022-11-17T06:16:35.646Z,3.40
2022-11-17T06:20:51.602Z,3.75
2022-11-17T06:25:05.945Z,3.85
2022-11-17T06:29:18.333Z,3.92
2022-11-17T06:33:40.951Z,3.53
2022-11-17T06:37:53.232Z,3.72
2022-11-17T06:42:05.613Z,3.10
2022-11-17T06:46:18.294Z,3.75
2022-11-17T06:50:30.781Z,3.50
2022-11-17T06:54:43.050Z,3.60
2022-11-17T06:58:56.973Z,3.45
2022-11-17T07:03:10.995Z,3.33
2022-11-17T07:07:23.366Z,3.00
2022-11-17T07:11:37.154Z,3.70
2022-11-17T07:15:50.931Z,3.67
2022-11-17T07:20:03.329Z,3.50
2022-11-17T07:24:15.613Z,3.97
2022-11-17T07:28:28.495Z,3.15
2022-11-17T07:32:40.814Z,3.70
2022-11-17T07:36:53.103Z,3.25
2022-11-17T07:41:06.819Z,3.47
2022-11-17T07:45:19.259Z,3.10
2022-11-17T07:49:31.542Z,3.00
2022-11-17T07:53:44.254Z,2.65
2022-11-17T07:58:02.102Z,3.63
2022-11-17T08:02:14.671Z,2.85
2022-11-17T08:06:27.049Z,2.97
2022-11-17T08:10:39.346Z,2.88
2022-11-17T08:14:51.694Z,2.80
2022-11-17T08:19:06.891Z,2.78
2022-11-17T08:23:19.449Z,2.10
2022-11-17T08:27:31.778Z,1.95
2022-11-17T08:31:46.947Z,1.77
2022-11-17T08:36:03.271Z,2.47
2022-11-17T08:40:16.806Z,2.90
2022-11-17T08:44:29.073Z,4.20
2022-11-17T08:48:41.650Z,2.83
2022-11-17T08:52:54.658Z,1.88
2022-11-17T08:57:07.005Z,1.67
2022-11-17T09:01:19.618Z,1.63
2022-11-17T09:05:31.972Z,1.80
2022-11-17T09:09:44.674Z,1.70
2022-11-17T09:13:57.232Z,1.80
2022-11-17T09:18:09.601Z,1.85
2022-11-17T09:22:22.023Z,1.85
2022-11-17T09:26:34.607Z,1.40
2022-11-17T09:30:47.326Z,1.60
2022-11-17T09:34:59.652Z,1.40
2022-11-17T09:39:11.942Z,1.65
2022-11-17T09:43:36.546Z,1.80
2022-11-17T09:48:25.510Z,1.60
2022-11-17T09:52:53.784Z,1.27
2022-11-17T09:57:13.159Z,1.25
2022-11-17T10:01:29.155Z,1.30
2022-11-17T10:05:41.516Z,1.40
2022-11-17T10:09:55.506Z,1.20
2022-11-17T10:14:16.957Z,1.35
2022-11-17T10:18:37.702Z,1.20
2022-11-17T10:22:52.893Z,1.30
2022-11-17T10:27:24.725Z,1.30
2022-11-17T10:31:45.716Z,1.50
2022-11-17T10:36:07.716Z,1.40
2022-11-17T10:40:25.758Z,1.23
2022-11-17T10:44:42.652Z,1.20
2022-11-17T10:48:58.565Z,1.60
2022-11-17T10:53:27.708Z,1.30
2022-11-17T11:01:57.338Z,1.20
2022-11-17T11:06:34.564Z,1.15
2022-11-17T11:10:50.986Z,1.20
2022-11-17T11:15:04.398Z,1.20
2022-11-17T11:19:22.810Z,1.40
2022-11-17T11:23:49.423Z,1.40
2022-11-17T11:28:12.218Z,0.80
2022-11-17T11:32:45.496Z,0.80
2022-11-17T11:37:05.134Z,0.88
2022-11-17T11:41:41.665Z,0.63
2022-11-17T11:45:59.998Z,0.80
2022-11-17T11:50:54.167Z,1.90
2022-11-17T11:55:15.760Z,1.40
2022-11-17T11:59:51.503Z,1.60
2022-11-17T12:04:41.128Z,1.02
2022-11-17T12:09:07.294Z,1.05
2022-11-17T12:13:22.703Z,1.23
2022-11-17T12:17:35.153Z,0.80
2022-11-17T12:21:55.072Z,1.02
2022-11-17T12:26:22.778Z,0.80
2022-11-17T12:30:35.056Z,0.82
2022-11-17T12:35:25.964Z,1.08
2022-11-17T12:39:56.622Z,1.15
2022-11-17T12:44:40.081Z,1.30
2022-11-17T12:49:08.395Z,0.80
2022-11-17T12:53:29.924Z,0.63
2022-11-17T12:57:44.900Z,0.98
2022-11-17T13:02:28.853Z,0.70
2022-11-17T13:07:04.822Z,0.90
2022-11-17T13:11:18.397Z,1.05
2022-11-17T13:15:30.758Z,2.83
2022-11-17T13:19:43.430Z,1.10
2022-11-17T13:23:56.585Z,1.00
2022-11-17T13:28:26.940Z,1.17
2022-11-17T13:32:42.893Z,1.20
2022-11-17T13:37:00.243Z,1.00
2022-11-17T13:41:12.598Z,0.90
2022-11-17T13:45:25.588Z,0.98
2022-11-17T13:49:39.475Z,0.88
2022-11-17T13:53:57.010Z,0.73
2022-11-17T13:58:47.825Z,1.10
2022-11-17T14:03:06.997Z,0.98
2022-11-17T14:11:42.721Z,0.95
2022-11-17T14:15:57.994Z,0.75
2022-11-17T14:20:39.665Z,1.00
2022-11-17T14:24:52.179Z,0.90
2022-11-17T14:29:05.623Z,0.75
2022-11-17T14:33:18.204Z,0.80
2022-11-17T14:37:32.978Z,0.75
2022-11-17T14:41:46.196Z,0.80
2022-11-17T14:45:58.983Z,1.00
2022-11-17T14:50:17.606Z,1.15
2022-11-17T14:54:29.931Z,1.25
2022-11-17T14:58:42.642Z,1.20
2022-11-17T15:02:54.998Z,1.15
2022-11-17T15:07:08.136Z,1.23
2022-11-17T15:11:20.574Z,1.40
2022-11-17T15:15:33.998Z,1.40
2022-11-17T15:19:54.414Z,2.72
2022-11-17T15:24:07.236Z,10.32
2022-11-17T15:28:23.077Z,9.15
2022-11-17T15:32:35.510Z,8.25
2022-11-17T15:36:49.865Z,4.63
2022-11-17T15:41:02.184Z,2.22
2022-11-17T15:45:14.502Z,1.90
2022-11-17T15:49:26.779Z,1.80
2022-11-17T15:53:40.282Z,1.60
2022-11-17T15:57:54.379Z,1.60
2022-11-17T16:02:10.554Z,1.52
2022-11-17T16:06:23.038Z,2.20
2022-11-17T16:10:35.380Z,1.45
2022-11-17T16:14:47.678Z,1.10
2022-11-17T16:19:01.075Z,0.77
2022-11-17T16:23:13.598Z,1.05
2022-11-17T16:27:25.856Z,1.15
2022-11-17T16:31:48.117Z,1.10
2022-11-17T16:36:06.167Z,1.00
2022-11-17T16:40:19.294Z,1.15
2022-11-17T16:44:31.622Z,1.27
2022-11-17T16:48:43.945Z,1.40
2022-11-17T16:52:56.242Z,1.52
2022-11-17T16:57:08.886Z,1.70
2022-11-17T17:01:23.943Z,2.60
2022-11-17T17:05:41.085Z,3.15
2022-11-17T17:09:53.397Z,2.90
2022-11-17T17:14:09.034Z,2.58
2022-11-17T17:18:21.364Z,2.40
2022-11-17T17:22:33.670Z,3.13
2022-11-17T17:26:46.107Z,3.72
2022-11-17T17:30:58.877Z,3.70
2022-11-17T17:35:11.170Z,3.50
2022-11-17T17:39:23.434Z,4.10
2022-11-17T17:43:36.546Z,2.65
2022-11-17T17:47:56.122Z,2.95
2022-11-17T17:52:18.419Z,3.40
2022-11-17T17:56:33.579Z,3.55
2022-11-17T18:00:48.086Z,3.35
2022-11-17T18:05:00.346Z,2.90
2022-11-17T18:09:15.153Z,2.75
2022-11-17T18:13:32.391Z,2.63
2022-11-17T18:17:44.663Z,3.05
2022-11-17T18:21:56.937Z,2.63
2022-11-17T18:26:18.460Z,3.05
2022-11-17T18:30:30.791Z,2.60
2022-11-17T18:34:43.144Z,2.45
2022-11-17T18:38:57.409Z,3.00
2022-11-17T18:43:10.183Z,2.38
2022-11-17T18:47:22.498Z,2.63
2022-11-17T18:51:37.457Z,2.85
2022-11-17T18:55:50.105Z,3.05
2022-11-17T19:00:03.068Z,3.42
2022-11-17T19:04:15.525Z,3.17
2022-11-17T19:08:34.572Z,2.75
2022-11-17T19:12:46.854Z,2.70
2022-11-17T19:16:59.157Z,2.78
2022-11-17T19:21:14.084Z,2.67
2022-11-17T19:25:26.371Z,2.40
2022-11-17T19:29:40.914Z,2.25
2022-11-17T19:33:54.894Z,3.15
2022-11-17T19:38:07.903Z,2.65
2022-11-17T19:42:20.151Z,2.80
2022-11-17T19:46:33.402Z,2.97
2022-11-17T19:50:56.038Z,2.67
2022-11-17T19:55:08.845Z,2.75
2022-11-17T19:59:21.525Z,3.40
2022-11-17T20:03:35.417Z,2.85
2022-11-17T20:07:47.746Z,2.83
2022-11-17T20:12:00.004Z,2.60
2022-11-17T20:16:18.142Z,2.50
2022-11-17T20:20:30.416Z,2.42
2022-11-17T20:24:42.683Z,2.17
2022-11-17T20:28:56.037Z,2.45
2022-11-17T20:33:08.446Z,2.55
2022-11-17T20:37:20.744Z,2.83
2022-11-17T20:41:33.242Z,2.80
2022-11-17T20:45:54.349Z,2.60
2022-11-17T20:50:07.082Z,2.72
2022-11-17T20:54:19.399Z,2.53
2022-11-17T20:58:31.753Z,2.30
2022-11-17T21:02:44.060Z,2.90
2022-11-17T21:06:56.355Z,2.25
2022-11-17T21:11:11.740Z,2.17
2022-11-17T21:15:24.073Z,3.03
2022-11-17T21:19:39.006Z,2.40
2022-11-17T21:23:55.318Z,3.00
2022-11-17T21:28:07.695Z,2.53
2022-11-17T21:32:20.365Z,2.55
2022-11-17T21:36:34.144Z,2.60
2022-11-17T21:40:46.433Z,2.47
2022-11-17T21:44:58.703Z,3.00
2022-11-17T21:49:10.970Z,2.60
2022-11-17T21:53:23.252Z,3.15
2022-11-17T21:57:35.518Z,2.80
2022-11-17T22:01:47.795Z,2.92
2022-11-17T22:06:11.358Z,2.65
2022-11-17T22:10:23.906Z,2.65
2022-11-17T22:14:36.177Z,3.35
2022-11-17T22:18:51.438Z,3.20
2022-11-17T22:23:03.704Z,2.88
2022-11-17T22:27:16.325Z,2.28
2022-11-17T22:31:28.746Z,1.67
2022-11-17T22:35:41.023Z,1.85
2022-11-17T22:39:53.467Z,1.20
2022-11-17T22:44:07.077Z,1.40
2022-11-17T22:48:19.485Z,1.20
2022-11-17T22:52:40.756Z,1.13
2022-11-17T22:56:53.050Z,0.98
2022-11-17T23:01:07.174Z,0.98
2022-11-17T23:05:20.358Z,0.82
2022-11-17T23:09:32.714Z,0.55
2022-11-17T23:13:44.988Z,0.57
2022-11-17T23:17:57.286Z,0.80
2022-11-17T23:22:09.549Z,0.80
2022-11-17T23:26:23.117Z,0.47
2022-11-17T23:30:35.410Z,0.68
2022-11-17T23:34:47.755Z,0.52
2022-11-17T23:39:05.503Z,0.63
2022-11-17T23:43:17.858Z,0.65
2022-11-17T23:47:30.154Z,0.63
2022-11-17T23:51:42.467Z,0.63
2022-11-17T23:55:58.622Z,0.70
